Paris, France
Current Conditions -  °F | °C
As of 8:00 AM on Monday 22 Dec 2014 (Local Time) from LFPB Reporting Station
Overcast Overcast  
Wind Chill: 43°   Ceiling: 1700
Heat Index: 48°   Visibility: 6mi
Dew Point: 43°   Wind: 12mph
Humidity: 82%   Direction: 250°WSW
Pressure: 30.36"   Gusts: NA
Location:  48.86°N, 2.35°E
Report Text: LFPB 220700Z AUTO 25010KT 210V280 9999 OVC017 09/06 Q1028
Loading
Personal Weather Stations






























Interactive Weather Map New forecast layout! Learn more

10-Day Weather Forecast

Advertisements
Track Severe Weather on mobile